sensor_id;sensor_type;location;lat;lon;timestamp;P1;durP1;ratioP1;P2;durP2;ratioP2
16845;SDS011;8539;53.188;8.696;2023-04-19T00:01:32;16.02;;;11.35;;
16845;SDS011;8539;53.188;8.696;2023-04-19T00:03:58;16.80;;;11.02;;
16845;SDS011;8539;53.188;8.696;2023-04-19T00:06:24;16.52;;;10.63;;
16845;SDS011;8539;53.188;8.696;2023-04-19T00:08:50;20.55;;;11.65;;
16845;SDS011;8539;53.188;8.696;2023-04-19T00:11:16;17.08;;;9.57;;
16845;SDS011;8539;53.188;8.696;2023-04-19T00:13:42;20.33;;;11.20;;
16845;SDS011;8539;53.188;8.696;2023-04-19T00:16:08;14.43;;;10.02;;
16845;SDS011;8539;53.188;8.696;2023-04-19T00:18:34;15.88;;;9.50;;
16845;SDS011;8539;53.188;8.696;2023-04-19T00:21:03;16.00;;;10.32;;
16845;SDS011;8539;53.188;8.696;2023-04-19T00:23:29;19.17;;;10.07;;
16845;SDS011;8539;53.188;8.696;2023-04-19T00:25:55;14.30;;;10.25;;
16845;SDS011;8539;53.188;8.696;2023-04-19T00:28:21;12.85;;;8.18;;
16845;SDS011;8539;53.188;8.696;2023-04-19T00:30:47;14.73;;;8.77;;
16845;SDS011;8539;53.188;8.696;2023-04-19T00:33:13;11.82;;;8.63;;
16845;SDS011;8539;53.188;8.696;2023-04-19T00:35:39;18.00;;;8.82;;
16845;SDS011;8539;53.188;8.696;2023-04-19T00:38:09;14.55;;;9.32;;
16845;SDS011;8539;53.188;8.696;2023-04-19T00:40:35;14.95;;;8.80;;
16845;SDS011;8539;53.188;8.696;2023-04-19T00:43:02;12.38;;;8.13;;
16845;SDS011;8539;53.188;8.696;2023-04-19T00:45:28;13.40;;;9.77;;
16845;SDS011;8539;53.188;8.696;2023-04-19T00:47:55;19.48;;;9.45;;
16845;SDS011;8539;53.188;8.696;2023-04-19T00:50:21;13.45;;;8.88;;
16845;SDS011;8539;53.188;8.696;2023-04-19T00:52:47;13.38;;;8.93;;
16845;SDS011;8539;53.188;8.696;2023-04-19T00:55:13;14.35;;;8.45;;
16845;SDS011;8539;53.188;8.696;2023-04-19T00:57:39;15.98;;;8.63;;
16845;SDS011;8539;53.188;8.696;2023-04-19T01:00:06;16.25;;;8.82;;
16845;SDS011;8539;53.188;8.696;2023-04-19T01:02:34;17.17;;;8.50;;
16845;SDS011;8539;53.188;8.696;2023-04-19T01:05:00;13.07;;;8.57;;
16845;SDS011;8539;53.188;8.696;2023-04-19T01:07:27;18.98;;;9.45;;
16845;SDS011;8539;53.188;8.696;2023-04-19T01:09:53;14.93;;;8.55;;
16845;SDS011;8539;53.188;8.696;2023-04-19T01:12:19;13.93;;;9.10;;
16845;SDS011;8539;53.188;8.696;2023-04-19T01:14:45;16.90;;;8.57;;
16845;SDS011;8539;53.188;8.696;2023-04-19T01:17:12;15.60;;;8.68;;
16845;SDS011;8539;53.188;8.696;2023-04-19T01:19:38;26.40;;;11.50;;
16845;SDS011;8539;53.188;8.696;2023-04-19T01:22:04;17.92;;;9.38;;
16845;SDS011;8539;53.188;8.696;2023-04-19T01:24:32;13.00;;;8.10;;
16845;SDS011;8539;53.188;8.696;2023-04-19T01:26:58;13.10;;;8.98;;
16845;SDS011;8539;53.188;8.696;2023-04-19T01:29:24;12.02;;;8.43;;
16845;SDS011;8539;53.188;8.696;2023-04-19T01:31:50;13.88;;;7.78;;
16845;SDS011;8539;53.188;8.696;2023-04-19T01:34:18;11.50;;;7.68;;
16845;SDS011;8539;53.188;8.696;2023-04-19T01:36:44;12.88;;;6.88;;
16845;SDS011;8539;53.188;8.696;2023-04-19T01:39:10;12.80;;;7.22;;
16845;SDS011;8539;53.188;8.696;2023-04-19T01:41:36;11.05;;;7.63;;
16845;SDS011;8539;53.188;8.696;2023-04-19T01:44:03;11.55;;;7.85;;
16845;SDS011;8539;53.188;8.696;2023-04-19T01:46:29;16.15;;;8.20;;
16845;SDS011;8539;53.188;8.696;2023-04-19T01:48:55;12.43;;;6.97;;
16845;SDS011;8539;53.188;8.696;2023-04-19T01:51:22;11.32;;;7.82;;
16845;SDS011;8539;53.188;8.696;2023-04-19T01:53:48;15.82;;;7.22;;
16845;SDS011;8539;53.188;8.696;2023-04-19T01:56:19;11.85;;;7.93;;
16845;SDS011;8539;53.188;8.696;2023-04-19T02:01:31;13.50;;;7.63;;
16845;SDS011;8539;53.188;8.696;2023-04-19T02:03:57;11.50;;;6.20;;
16845;SDS011;8539;53.188;8.696;2023-04-19T02:06:23;15.88;;;7.30;;
16845;SDS011;8539;53.188;8.696;2023-04-19T02:08:51;13.52;;;7.78;;
16845;SDS011;8539;53.188;8.696;2023-04-19T02:11:17;12.13;;;7.47;;
16845;SDS011;8539;53.188;8.696;2023-04-19T02:13:43;15.35;;;8.02;;
16845;SDS011;8539;53.188;8.696;2023-04-19T02:16:09;12.48;;;6.35;;
16845;SDS011;8539;53.188;8.696;2023-04-19T02:18:35;10.98;;;6.45;;
16845;SDS011;8539;53.188;8.696;2023-04-19T02:21:04;10.02;;;6.20;;
16845;SDS011;8539;53.188;8.696;2023-04-19T02:23:31;10.45;;;6.28;;
16845;SDS011;8539;53.188;8.696;2023-04-19T02:25:57;11.38;;;6.35;;
16845;SDS011;8539;53.188;8.696;2023-04-19T02:28:23;13.98;;;6.45;;
16845;SDS011;8539;53.188;8.696;2023-04-19T02:30:49;11.15;;;6.43;;
16845;SDS011;8539;53.188;8.696;2023-04-19T02:33:16;8.98;;;6.30;;
16845;SDS011;8539;53.188;8.696;2023-04-19T02:35:42;17.63;;;6.60;;
16845;SDS011;8539;53.188;8.696;2023-04-19T02:38:08;10.82;;;5.63;;
16845;SDS011;8539;53.188;8.696;2023-04-19T02:40:34;14.25;;;6.32;;
16845;SDS011;8539;53.188;8.696;2023-04-19T02:43:00;11.52;;;6.53;;
16845;SDS011;8539;53.188;8.696;2023-04-19T02:45:26;8.10;;;5.30;;
16845;SDS011;8539;53.188;8.696;2023-04-19T02:47:52;9.35;;;6.05;;
16845;SDS011;8539;53.188;8.696;2023-04-19T02:50:18;13.63;;;6.35;;
16845;SDS011;8539;53.188;8.696;2023-04-19T02:52:44;13.25;;;6.53;;
16845;SDS011;8539;53.188;8.696;2023-04-19T02:55:10;10.27;;;6.45;;
16845;SDS011;8539;53.188;8.696;2023-04-19T02:57:37;9.25;;;6.13;;
16845;SDS011;8539;53.188;8.696;2023-04-19T03:00:03;9.60;;;5.88;;
16845;SDS011;8539;53.188;8.696;2023-04-19T03:02:30;11.98;;;5.35;;
16845;SDS011;8539;53.188;8.696;2023-04-19T03:04:56;11.07;;;5.65;;
16845;SDS011;8539;53.188;8.696;2023-04-19T03:07:23;15.20;;;5.97;;
16845;SDS011;8539;53.188;8.696;2023-04-19T03:09:49;7.45;;;5.28;;
16845;SDS011;8539;53.188;8.696;2023-04-19T03:12:15;10.48;;;5.82;;
16845;SDS011;8539;53.188;8.696;2023-04-19T03:14:41;14.73;;;5.30;;
16845;SDS011;8539;53.188;8.696;2023-04-19T03:17:07;8.90;;;5.50;;
16845;SDS011;8539;53.188;8.696;2023-04-19T03:19:33;16.02;;;7.03;;
16845;SDS011;8539;53.188;8.696;2023-04-19T03:21:59;9.63;;;5.53;;
16845;SDS011;8539;53.188;8.696;2023-04-19T03:24:26;8.73;;;5.43;;
16845;SDS011;8539;53.188;8.696;2023-04-19T03:26:56;9.50;;;5.43;;
16845;SDS011;8539;53.188;8.696;2023-04-19T03:29:22;9.15;;;5.78;;
16845;SDS011;8539;53.188;8.696;2023-04-19T03:34:42;13.02;;;6.45;;
16845;SDS011;8539;53.188;8.696;2023-04-19T03:37:09;11.35;;;6.75;;
16845;SDS011;8539;53.188;8.696;2023-04-19T03:39:35;8.27;;;5.68;;
16845;SDS011;8539;53.188;8.696;2023-04-19T03:42:01;11.23;;;6.68;;
16845;SDS011;8539;53.188;8.696;2023-04-19T03:44:27;12.90;;;6.35;;
16845;SDS011;8539;53.188;8.696;2023-04-19T03:46:56;9.70;;;5.72;;
16845;SDS011;8539;53.188;8.696;2023-04-19T03:49:22;8.13;;;5.88;;
16845;SDS011;8539;53.188;8.696;2023-04-19T03:51:48;9.70;;;5.95;;
16845;SDS011;8539;53.188;8.696;2023-04-19T03:54:15;15.15;;;6.43;;
16845;SDS011;8539;53.188;8.696;2023-04-19T03:56:41;10.90;;;5.78;;
16845;SDS011;8539;53.188;8.696;2023-04-19T03:59:08;12.77;;;5.85;;
16845;SDS011;8539;53.188;8.696;2023-04-19T04:01:34;10.27;;;5.78;;
16845;SDS011;8539;53.188;8.696;2023-04-19T04:04:06;7.63;;;5.70;;
16845;SDS011;8539;53.188;8.696;2023-04-19T04:06:33;12.65;;;6.70;;
16845;SDS011;8539;53.188;8.696;2023-04-19T04:08:59;11.85;;;6.05;;
16845;SDS011;8539;53.188;8.696;2023-04-19T04:11:26;13.63;;;6.72;;
16845;SDS011;8539;53.188;8.696;2023-04-19T04:13:54;15.70;;;7.15;;
16845;SDS011;8539;53.188;8.696;2023-04-19T04:16:20;10.05;;;5.90;;
16845;SDS011;8539;53.188;8.696;2023-04-19T04:18:47;10.88;;;5.88;;
16845;SDS011;8539;53.188;8.696;2023-04-19T04:21:12;7.72;;;5.75;;
16845;SDS011;8539;53.188;8.696;2023-04-19T04:23:39;8.40;;;4.85;;
16845;SDS011;8539;53.188;8.696;2023-04-19T04:26:06;12.65;;;4.93;;
16845;SDS011;8539;53.188;8.696;2023-04-19T04:28:34;14.25;;;5.38;;
16845;SDS011;8539;53.188;8.696;2023-04-19T04:31:00;6.47;;;4.70;;
16845;SDS011;8539;53.188;8.696;2023-04-19T04:33:27;8.45;;;5.47;;
16845;SDS011;8539;53.188;8.696;2023-04-19T04:35:53;8.60;;;5.00;;
16845;SDS011;8539;53.188;8.696;2023-04-19T04:38:20;8.77;;;5.75;;
16845;SDS011;8539;53.188;8.696;2023-04-19T04:40:53;7.45;;;4.47;;
16845;SDS011;8539;53.188;8.696;2023-04-19T04:43:35;14.10;;;5.32;;
16845;SDS011;8539;53.188;8.696;2023-04-19T04:46:01;13.10;;;4.85;;
16845;SDS011;8539;53.188;8.696;2023-04-19T04:48:28;14.90;;;7.00;;
16845;SDS011;8539;53.188;8.696;2023-04-19T04:50:56;9.52;;;4.10;;
16845;SDS011;8539;53.188;8.696;2023-04-19T04:53:25;7.03;;;4.57;;
16845;SDS011;8539;53.188;8.696;2023-04-19T04:55:55;13.13;;;5.28;;
16845;SDS011;8539;53.188;8.696;2023-04-19T04:58:33;9.40;;;4.60;;
16845;SDS011;8539;53.188;8.696;2023-04-19T05:00:59;8.60;;;4.55;;
16845;SDS011;8539;53.188;8.696;2023-04-19T05:03:25;12.48;;;5.07;;
16845;SDS011;8539;53.188;8.696;2023-04-19T05:05:52;9.20;;;4.47;;
16845;SDS011;8539;53.188;8.696;2023-04-19T05:08:17;10.98;;;4.63;;
16845;SDS011;8539;53.188;8.696;2023-04-19T05:10:44;7.95;;;4.18;;
16845;SDS011;8539;53.188;8.696;2023-04-19T05:13:10;9.25;;;4.15;;
16845;SDS011;8539;53.188;8.696;2023-04-19T05:15:36;7.05;;;4.30;;
16845;SDS011;8539;53.188;8.696;2023-04-19T05:18:03;7.90;;;4.47;;
16845;SDS011;8539;53.188;8.696;2023-04-19T05:20:30;6.53;;;4.18;;
16845;SDS011;8539;53.188;8.696;2023-04-19T05:23:01;8.95;;;4.22;;
16845;SDS011;8539;53.188;8.696;2023-04-19T05:25:28;7.30;;;4.65;;
16845;SDS011;8539;53.188;8.696;2023-04-19T05:27:55;6.38;;;3.60;;
16845;SDS011;8539;53.188;8.696;2023-04-19T05:30:22;9.70;;;3.33;;
16845;SDS011;8539;53.188;8.696;2023-04-19T05:32:48;7.38;;;3.97;;
16845;SDS011;8539;53.188;8.696;2023-04-19T05:35:14;6.05;;;3.95;;
16845;SDS011;8539;53.188;8.696;2023-04-19T05:37:40;8.35;;;3.55;;
16845;SDS011;8539;53.188;8.696;2023-04-19T05:40:06;6.78;;;3.63;;
16845;SDS011;8539;53.188;8.696;2023-04-19T05:42:36;6.40;;;3.50;;
16845;SDS011;8539;53.188;8.696;2023-04-19T05:45:04;9.45;;;3.60;;
16845;SDS011;8539;53.188;8.696;2023-04-19T05:47:31;10.77;;;3.33;;
16845;SDS011;8539;53.188;8.696;2023-04-19T05:49:57;5.70;;;4.32;;
16845;SDS011;8539;53.188;8.696;2023-04-19T05:52:23;8.13;;;3.55;;
16845;SDS011;8539;53.188;8.696;2023-04-19T05:54:50;5.20;;;3.50;;
16845;SDS011;8539;53.188;8.696;2023-04-19T05:57:16;5.68;;;3.63;;
16845;SDS011;8539;53.188;8.696;2023-04-19T05:59:42;4.35;;;3.30;;
16845;SDS011;8539;53.188;8.696;2023-04-19T06:02:08;7.63;;;3.20;;
16845;SDS011;8539;53.188;8.696;2023-04-19T06:04:34;6.15;;;3.90;;
16845;SDS011;8539;53.188;8.696;2023-04-19T06:07:00;5.07;;;3.25;;
16845;SDS011;8539;53.188;8.696;2023-04-19T06:09:26;7.40;;;3.13;;
16845;SDS011;8539;53.188;8.696;2023-04-19T06:11:52;4.38;;;3.42;;
16845;SDS011;8539;53.188;8.696;2023-04-19T06:14:19;7.65;;;2.88;;
16845;SDS011;8539;53.188;8.696;2023-04-19T06:16:45;5.32;;;2.75;;
16845;SDS011;8539;53.188;8.696;2023-04-19T06:19:11;8.55;;;2.58;;
16845;SDS011;8539;53.188;8.696;2023-04-19T06:21:38;3.28;;;2.38;;
16845;SDS011;8539;53.188;8.696;2023-04-19T06:24:07;5.70;;;2.92;;
16845;SDS011;8539;53.188;8.696;2023-04-19T06:26:33;4.30;;;2.60;;
16845;SDS011;8539;53.188;8.696;2023-04-19T06:28:59;5.93;;;2.78;;
16845;SDS011;8539;53.188;8.696;2023-04-19T06:31:25;3.42;;;2.33;;
16845;SDS011;8539;53.188;8.696;2023-04-19T06:33:52;2.05;;;1.85;;
16845;SDS011;8539;53.188;8.696;2023-04-19T06:36:18;5.03;;;2.03;;
16845;SDS011;8539;53.188;8.696;2023-04-19T06:38:45;4.22;;;2.30;;
16845;SDS011;8539;53.188;8.696;2023-04-19T06:41:11;5.53;;;1.90;;
16845;SDS011;8539;53.188;8.696;2023-04-19T06:43:37;2.33;;;1.90;;
16845;SDS011;8539;53.188;8.696;2023-04-19T06:46:05;2.05;;;1.80;;
16845;SDS011;8539;53.188;8.696;2023-04-19T06:48:32;3.97;;;2.60;;
16845;SDS011;8539;53.188;8.696;2023-04-19T06:50:59;7.68;;;2.42;;
16845;SDS011;8539;53.188;8.696;2023-04-19T06:53:25;2.08;;;1.65;;
16845;SDS011;8539;53.188;8.696;2023-04-19T06:55:58;4.30;;;2.13;;
16845;SDS011;8539;53.188;8.696;2023-04-19T06:58:26;4.30;;;1.83;;
16845;SDS011;8539;53.188;8.696;2023-04-19T07:00:53;2.95;;;1.85;;
16845;SDS011;8539;53.188;8.696;2023-04-19T07:03:19;3.97;;;1.67;;
16845;SDS011;8539;53.188;8.696;2023-04-19T07:05:45;3.75;;;2.00;;
16845;SDS011;8539;53.188;8.696;2023-04-19T07:08:12;2.50;;;1.88;;
16845;SDS011;8539;53.188;8.696;2023-04-19T07:10:38;4.43;;;1.83;;
16845;SDS011;8539;53.188;8.696;2023-04-19T07:13:05;5.22;;;2.30;;
16845;SDS011;8539;53.188;8.696;2023-04-19T07:15:31;3.15;;;1.67;;
16845;SDS011;8539;53.188;8.696;2023-04-19T07:17:57;2.60;;;1.73;;
16845;SDS011;8539;53.188;8.696;2023-04-19T07:20:23;3.50;;;1.88;;
16845;SDS011;8539;53.188;8.696;2023-04-19T07:22:49;2.83;;;1.52;;
16845;SDS011;8539;53.188;8.696;2023-04-19T07:25:15;5.90;;;2.00;;
16845;SDS011;8539;53.188;8.696;2023-04-19T07:27:41;2.05;;;1.52;;
16845;SDS011;8539;53.188;8.696;2023-04-19T07:30:07;1.60;;;1.48;;
16845;SDS011;8539;53.188;8.696;2023-04-19T07:32:34;5.72;;;1.50;;
16845;SDS011;8539;53.188;8.696;2023-04-19T07:35:00;2.75;;;1.77;;
16845;SDS011;8539;53.188;8.696;2023-04-19T07:37:26;3.05;;;1.60;;
16845;SDS011;8539;53.188;8.696;2023-04-19T07:39:56;2.55;;;1.42;;
16845;SDS011;8539;53.188;8.696;2023-04-19T07:42:23;3.42;;;1.65;;
16845;SDS011;8539;53.188;8.696;2023-04-19T07:44:49;2.85;;;1.45;;
16845;SDS011;8539;53.188;8.696;2023-04-19T07:47:16;3.35;;;2.60;;
16845;SDS011;8539;53.188;8.696;2023-04-19T07:49:42;6.47;;;1.75;;
16845;SDS011;8539;53.188;8.696;2023-04-19T07:52:08;1.88;;;1.48;;
16845;SDS011;8539;53.188;8.696;2023-04-19T07:54:34;2.47;;;1.70;;
16845;SDS011;8539;53.188;8.696;2023-04-19T07:57:03;3.78;;;1.60;;
16845;SDS011;8539;53.188;8.696;2023-04-19T07:59:29;3.92;;;1.80;;
16845;SDS011;8539;53.188;8.696;2023-04-19T08:01:58;2.20;;;1.20;;
16845;SDS011;8539;53.188;8.696;2023-04-19T08:04:24;2.35;;;1.30;;
16845;SDS011;8539;53.188;8.696;2023-04-19T08:06:50;1.48;;;1.35;;
16845;SDS011;8539;53.188;8.696;2023-04-19T08:09:17;2.55;;;1.10;;
16845;SDS011;8539;53.188;8.696;2023-04-19T08:11:44;2.58;;;1.70;;
16845;SDS011;8539;53.188;8.696;2023-04-19T08:14:10;2.92;;;1.85;;
16845;SDS011;8539;53.188;8.696;2023-04-19T08:16:36;6.47;;;1.85;;
16845;SDS011;8539;53.188;8.696;2023-04-19T08:19:02;2.83;;;1.65;;
16845;SDS011;8539;53.188;8.696;2023-04-19T08:21:28;1.60;;;1.33;;
16845;SDS011;8539;53.188;8.696;2023-04-19T08:23:55;3.70;;;1.45;;
16845;SDS011;8539;53.188;8.696;2023-04-19T08:26:21;1.70;;;1.27;;
16845;SDS011;8539;53.188;8.696;2023-04-19T08:28:48;2.70;;;1.90;;
16845;SDS011;8539;53.188;8.696;2023-04-19T08:31:16;3.22;;;1.70;;
16845;SDS011;8539;53.188;8.696;2023-04-19T08:33:45;3.17;;;1.80;;
16845;SDS011;8539;53.188;8.696;2023-04-19T08:36:12;2.30;;;1.42;;
16845;SDS011;8539;53.188;8.696;2023-04-19T08:38:38;2.55;;;1.55;;
16845;SDS011;8539;53.188;8.696;2023-04-19T08:41:05;2.85;;;1.80;;
16845;SDS011;8539;53.188;8.696;2023-04-19T08:43:46;2.33;;;1.63;;
16845;SDS011;8539;53.188;8.696;2023-04-19T08:46:17;2.50;;;2.00;;
16845;SDS011;8539;53.188;8.696;2023-04-19T08:48:43;2.60;;;1.50;;
16845;SDS011;8539;53.188;8.696;2023-04-19T08:51:11;1.63;;;1.50;;
16845;SDS011;8539;53.188;8.696;2023-04-19T08:53:38;2.30;;;1.50;;
16845;SDS011;8539;53.188;8.696;2023-04-19T08:56:06;3.10;;;1.70;;
16845;SDS011;8539;53.188;8.696;2023-04-19T08:58:32;2.20;;;1.40;;
16845;SDS011;8539;53.188;8.696;2023-04-19T09:00:58;3.80;;;2.00;;
16845;SDS011;8539;53.188;8.696;2023-04-19T09:03:25;3.35;;;1.80;;
16845;SDS011;8539;53.188;8.696;2023-04-19T09:05:51;5.68;;;1.77;;
16845;SDS011;8539;53.188;8.696;2023-04-19T09:08:25;4.40;;;1.63;;
16845;SDS011;8539;53.188;8.696;2023-04-19T09:10:56;4.05;;;1.67;;
16845;SDS011;8539;53.188;8.696;2023-04-19T09:13:24;6.13;;;1.92;;
16845;SDS011;8539;53.188;8.696;2023-04-19T09:15:51;4.53;;;1.52;;
16845;SDS011;8539;53.188;8.696;2023-04-19T09:18:19;1.92;;;1.58;;
16845;SDS011;8539;53.188;8.696;2023-04-19T09:20:45;1.73;;;1.42;;
16845;SDS011;8539;53.188;8.696;2023-04-19T09:23:13;2.72;;;1.58;;
16845;SDS011;8539;53.188;8.696;2023-04-19T09:26:00;1.98;;;1.70;;
16845;SDS011;8539;53.188;8.696;2023-04-19T09:28:27;3.88;;;1.88;;
16845;SDS011;8539;53.188;8.696;2023-04-19T09:30:53;3.45;;;1.60;;
16845;SDS011;8539;53.188;8.696;2023-04-19T09:33:30;4.63;;;1.98;;
16845;SDS011;8539;53.188;8.696;2023-04-19T09:35:58;5.60;;;1.75;;
16845;SDS011;8539;53.188;8.696;2023-04-19T09:38:25;2.15;;;1.50;;
16845;SDS011;8539;53.188;8.696;2023-04-19T09:40:51;1.85;;;1.30;;
16845;SDS011;8539;53.188;8.696;2023-04-19T09:43:29;3.03;;;1.95;;
16845;SDS011;8539;53.188;8.696;2023-04-19T09:45:55;2.20;;;1.88;;
16845;SDS011;8539;53.188;8.696;2023-04-19T09:48:22;2.70;;;1.73;;
16845;SDS011;8539;53.188;8.696;2023-04-19T09:50:50;4.32;;;1.90;;
16845;SDS011;8539;53.188;8.696;2023-04-19T09:53:26;3.22;;;1.60;;
16845;SDS011;8539;53.188;8.696;2023-04-19T09:55:53;4.13;;;2.13;;
16845;SDS011;8539;53.188;8.696;2023-04-19T09:58:20;4.65;;;1.70;;
16845;SDS011;8539;53.188;8.696;2023-04-19T10:00:55;4.40;;;1.98;;
16845;SDS011;8539;53.188;8.696;2023-04-19T10:03:29;2.78;;;2.33;;
16845;SDS011;8539;53.188;8.696;2023-04-19T10:05:56;2.67;;;2.42;;
16845;SDS011;8539;53.188;8.696;2023-04-19T10:08:29;4.03;;;2.10;;
16845;SDS011;8539;53.188;8.696;2023-04-19T10:10:57;3.42;;;1.70;;
16845;SDS011;8539;53.188;8.696;2023-04-19T10:13:23;2.33;;;1.70;;
16845;SDS011;8539;53.188;8.696;2023-04-19T10:15:50;2.75;;;1.50;;
16845;SDS011;8539;53.188;8.696;2023-04-19T10:18:16;1.63;;;1.17;;
16845;SDS011;8539;53.188;8.696;2023-04-19T10:23:20;3.60;;;1.65;;
16845;SDS011;8539;53.188;8.696;2023-04-19T10:25:47;2.72;;;1.65;;
16845;SDS011;8539;53.188;8.696;2023-04-19T10:28:14;1.70;;;1.35;;
16845;SDS011;8539;53.188;8.696;2023-04-19T10:30:58;1.77;;;1.67;;
16845;SDS011;8539;53.188;8.696;2023-04-19T10:33:35;3.53;;;1.63;;
16845;SDS011;8539;53.188;8.696;2023-04-19T10:38:41;2.45;;;1.70;;
16845;SDS011;8539;53.188;8.696;2023-04-19T10:41:09;1.70;;;1.60;;
16845;SDS011;8539;53.188;8.696;2023-04-19T10:43:48;3.03;;;1.30;;
16845;SDS011;8539;53.188;8.696;2023-04-19T10:46:35;1.25;;;1.15;;
16845;SDS011;8539;53.188;8.696;2023-04-19T10:49:04;2.45;;;1.60;;
16845;SDS011;8539;53.188;8.696;2023-04-19T10:51:33;1.88;;;1.33;;
16845;SDS011;8539;53.188;8.696;2023-04-19T10:54:01;1.33;;;1.20;;
16845;SDS011;8539;53.188;8.696;2023-04-19T11:01:34;1.65;;;1.30;;
16845;SDS011;8539;53.188;8.696;2023-04-19T11:04:02;1.45;;;1.35;;
16845;SDS011;8539;53.188;8.696;2023-04-19T11:06:29;1.65;;;1.38;;
16845;SDS011;8539;53.188;8.696;2023-04-19T11:08:55;1.33;;;1.10;;
16845;SDS011;8539;53.188;8.696;2023-04-19T11:11:21;1.88;;;1.25;;
16845;SDS011;8539;53.188;8.696;2023-04-19T11:13:49;1.42;;;1.20;;
16845;SDS011;8539;53.188;8.696;2023-04-19T11:16:16;3.05;;;1.20;;
16845;SDS011;8539;53.188;8.696;2023-04-19T11:18:43;1.63;;;1.27;;
16845;SDS011;8539;53.188;8.696;2023-04-19T11:21:12;4.80;;;1.40;;
16845;SDS011;8539;53.188;8.696;2023-04-19T11:23:39;2.95;;;1.40;;
16845;SDS011;8539;53.188;8.696;2023-04-19T11:26:08;1.67;;;1.30;;
16845;SDS011;8539;53.188;8.696;2023-04-19T11:28:37;4.13;;;1.65;;
16845;SDS011;8539;53.188;8.696;2023-04-19T11:31:03;3.40;;;1.52;;
16845;SDS011;8539;53.188;8.696;2023-04-19T11:33:33;5.53;;;1.23;;
16845;SDS011;8539;53.188;8.696;2023-04-19T11:36:00;2.83;;;1.48;;
16845;SDS011;8539;53.188;8.696;2023-04-19T11:38:28;2.88;;;1.40;;
16845;SDS011;8539;53.188;8.696;2023-04-19T11:41:01;2.35;;;1.40;;
16845;SDS011;8539;53.188;8.696;2023-04-19T11:43:35;2.65;;;1.25;;
16845;SDS011;8539;53.188;8.696;2023-04-19T11:46:08;2.70;;;1.50;;
16845;SDS011;8539;53.188;8.696;2023-04-19T11:51:01;2.55;;;1.38;;
16845;SDS011;8539;53.188;8.696;2023-04-19T11:53:29;4.93;;;1.42;;
16845;SDS011;8539;53.188;8.696;2023-04-19T11:56:06;4.22;;;1.70;;
16845;SDS011;8539;53.188;8.696;2023-04-19T11:58:36;2.30;;;1.70;;
16845;SDS011;8539;53.188;8.696;2023-04-19T12:03:53;2.38;;;1.70;;
16845;SDS011;8539;53.188;8.696;2023-04-19T12:06:23;2.50;;;1.67;;
16845;SDS011;8539;53.188;8.696;2023-04-19T12:08:55;3.53;;;2.22;;
16845;SDS011;8539;53.188;8.696;2023-04-19T12:11:22;2.72;;;1.90;;
16845;SDS011;8539;53.188;8.696;2023-04-19T12:16:36;6.03;;;1.80;;
16845;SDS011;8539;53.188;8.696;2023-04-19T12:19:09;2.08;;;1.52;;
16845;SDS011;8539;53.188;8.696;2023-04-19T12:21:38;2.70;;;1.67;;
16845;SDS011;8539;53.188;8.696;2023-04-19T12:24:05;2.80;;;1.83;;
16845;SDS011;8539;53.188;8.696;2023-04-19T12:26:31;4.30;;;2.00;;
16845;SDS011;8539;53.188;8.696;2023-04-19T12:28:58;3.92;;;2.13;;
16845;SDS011;8539;53.188;8.696;2023-04-19T12:31:25;4.43;;;1.77;;
16845;SDS011;8539;53.188;8.696;2023-04-19T12:33:52;2.47;;;1.83;;
16845;SDS011;8539;53.188;8.696;2023-04-19T12:36:18;5.20;;;1.98;;
16845;SDS011;8539;53.188;8.696;2023-04-19T12:38:45;3.13;;;1.67;;
16845;SDS011;8539;53.188;8.696;2023-04-19T12:41:11;3.05;;;2.00;;
16845;SDS011;8539;53.188;8.696;2023-04-19T12:43:37;6.30;;;1.73;;
16845;SDS011;8539;53.188;8.696;2023-04-19T12:46:03;5.05;;;1.63;;
16845;SDS011;8539;53.188;8.696;2023-04-19T12:48:29;6.85;;;2.80;;
16845;SDS011;8539;53.188;8.696;2023-04-19T12:50:56;4.78;;;2.33;;
16845;SDS011;8539;53.188;8.696;2023-04-19T12:53:22;2.00;;;1.80;;
16845;SDS011;8539;53.188;8.696;2023-04-19T12:55:49;5.22;;;2.13;;
16845;SDS011;8539;53.188;8.696;2023-04-19T12:58:15;3.28;;;2.40;;
16845;SDS011;8539;53.188;8.696;2023-04-19T13:00:43;2.42;;;2.10;;
16845;SDS011;8539;53.188;8.696;2023-04-19T13:03:09;3.45;;;2.20;;
16845;SDS011;8539;53.188;8.696;2023-04-19T13:05:37;6.57;;;2.30;;
16845;SDS011;8539;53.188;8.696;2023-04-19T13:08:04;4.32;;;2.15;;
16845;SDS011;8539;53.188;8.696;2023-04-19T13:10:30;2.42;;;1.98;;
16845;SDS011;8539;53.188;8.696;2023-04-19T13:12:56;2.83;;;1.80;;
16845;SDS011;8539;53.188;8.696;2023-04-19T13:15:23;2.78;;;1.80;;
16845;SDS011;8539;53.188;8.696;2023-04-19T13:17:50;4.85;;;1.95;;
16845;SDS011;8539;53.188;8.696;2023-04-19T13:20:19;5.22;;;1.80;;
16845;SDS011;8539;53.188;8.696;2023-04-19T13:22:46;3.17;;;2.22;;
16845;SDS011;8539;53.188;8.696;2023-04-19T13:25:12;2.47;;;2.13;;
16845;SDS011;8539;53.188;8.696;2023-04-19T13:27:38;4.28;;;2.45;;
16845;SDS011;8539;53.188;8.696;2023-04-19T13:30:04;3.17;;;2.47;;
16845;SDS011;8539;53.188;8.696;2023-04-19T13:32:30;5.35;;;2.83;;
16845;SDS011;8539;53.188;8.696;2023-04-19T13:34:56;3.22;;;2.72;;
16845;SDS011;8539;53.188;8.696;2023-04-19T13:37:22;4.38;;;2.53;;
16845;SDS011;8539;53.188;8.696;2023-04-19T13:39:49;2.47;;;1.75;;
16845;SDS011;8539;53.188;8.696;2023-04-19T13:42:15;3.95;;;2.50;;
16845;SDS011;8539;53.188;8.696;2023-04-19T13:44:42;1.90;;;1.70;;
16845;SDS011;8539;53.188;8.696;2023-04-19T13:47:11;2.55;;;2.20;;
16845;SDS011;8539;53.188;8.696;2023-04-19T13:49:37;6.28;;;2.15;;
16845;SDS011;8539;53.188;8.696;2023-04-19T13:52:03;3.90;;;2.78;;
16845;SDS011;8539;53.188;8.696;2023-04-19T13:54:29;4.65;;;2.25;;
16845;SDS011;8539;53.188;8.696;2023-04-19T13:56:55;6.15;;;2.75;;
16845;SDS011;8539;53.188;8.696;2023-04-19T13:59:22;4.88;;;2.00;;
16845;SDS011;8539;53.188;8.696;2023-04-19T14:01:50;5.00;;;3.15;;
16845;SDS011;8539;53.188;8.696;2023-04-19T14:04:16;7.75;;;2.67;;
16845;SDS011;8539;53.188;8.696;2023-04-19T14:06:43;7.00;;;2.13;;
16845;SDS011;8539;53.188;8.696;2023-04-19T14:09:09;5.03;;;2.08;;
16845;SDS011;8539;53.188;8.696;2023-04-19T14:11:35;7.35;;;2.63;;
16845;SDS011;8539;53.188;8.696;2023-04-19T14:14:02;3.28;;;2.45;;
16845;SDS011;8539;53.188;8.696;2023-04-19T14:16:28;8.05;;;3.03;;
16845;SDS011;8539;53.188;8.696;2023-04-19T14:18:54;9.60;;;3.78;;
16845;SDS011;8539;53.188;8.696;2023-04-19T14:21:20;5.45;;;2.15;;
16845;SDS011;8539;53.188;8.696;2023-04-19T14:23:46;2.75;;;2.05;;
16845;SDS011;8539;53.188;8.696;2023-04-19T14:26:13;3.83;;;2.28;;
16845;SDS011;8539;53.188;8.696;2023-04-19T14:28:39;3.65;;;2.33;;
16845;SDS011;8539;53.188;8.696;2023-04-19T14:31:05;4.13;;;2.58;;
16845;SDS011;8539;53.188;8.696;2023-04-19T14:33:31;4.10;;;2.65;;
16845;SDS011;8539;53.188;8.696;2023-04-19T14:35:57;10.27;;;2.38;;
16845;SDS011;8539;53.188;8.696;2023-04-19T14:38:23;10.20;;;2.20;;
16845;SDS011;8539;53.188;8.696;2023-04-19T14:40:49;4.85;;;2.10;;
16845;SDS011;8539;53.188;8.696;2023-04-19T14:43:15;3.05;;;2.05;;
16845;SDS011;8539;53.188;8.696;2023-04-19T14:45:42;6.03;;;2.78;;
16845;SDS011;8539;53.188;8.696;2023-04-19T14:48:08;3.90;;;2.67;;
16845;SDS011;8539;53.188;8.696;2023-04-19T14:50:34;5.95;;;2.55;;
16845;SDS011;8539;53.188;8.696;2023-04-19T14:53:00;4.57;;;1.80;;
16845;SDS011;8539;53.188;8.696;2023-04-19T14:55:26;3.22;;;2.05;;
16845;SDS011;8539;53.188;8.696;2023-04-19T14:57:52;5.05;;;2.15;;
16845;SDS011;8539;53.188;8.696;2023-04-19T15:00:18;5.18;;;1.90;;
16845;SDS011;8539;53.188;8.696;2023-04-19T15:02:45;2.53;;;1.70;;
16845;SDS011;8539;53.188;8.696;2023-04-19T15:05:11;3.85;;;1.83;;
16845;SDS011;8539;53.188;8.696;2023-04-19T15:07:37;6.38;;;2.05;;
16845;SDS011;8539;53.188;8.696;2023-04-19T15:10:03;5.05;;;2.17;;
16845;SDS011;8539;53.188;8.696;2023-04-19T15:12:30;3.92;;;1.92;;
16845;SDS011;8539;53.188;8.696;2023-04-19T15:14:56;2.65;;;1.75;;
16845;SDS011;8539;53.188;8.696;2023-04-19T15:17:22;6.97;;;2.03;;
16845;SDS011;8539;53.188;8.696;2023-04-19T15:19:48;3.42;;;1.73;;
16845;SDS011;8539;53.188;8.696;2023-04-19T15:22:15;3.78;;;1.77;;